sensor_id;sensor_type;location;lat;lon;timestamp;pressure;altitude;pressure_sealevel;temperature;humidity
45113;BME280;30873;53.908;27.576;2023-03-04T00:03:45;1003.5;;;4.5;65.5
45113;BME280;30873;53.908;27.576;2023-03-04T00:08:55;1003.4;;;4.4;65.7
45113;BME280;30873;53.908;27.576;2023-03-04T00:14:09;1003.2;;;4.4;65.8
45113;BME280;30873;53.908;27.576;2023-03-04T00:18:45;1003.1;;;4.3;65.7
45113;BME280;30873;53.908;27.576;2023-03-04T00:23:21;1003;;;4.3;66.1
45113;BME280;30873;53.908;27.576;2023-03-04T00:28:45;1002.8;;;4.4;66.3
45113;BME280;30873;53.908;27.576;2023-03-04T00:33:53;1002.7;;;4.4;66.4
45113;BME280;30873;53.908;27.576;2023-03-04T00:39:09;1002.6;;;4.4;66.7
45113;BME280;30873;53.908;27.576;2023-03-04T00:43:45;1002.5;;;4.4;66.8
45113;BME280;30873;53.908;27.576;2023-03-04T00:48:59;1002.4;;;4.3;67.2
45113;BME280;30873;53.908;27.576;2023-03-04T00:53:45;1002.3;;;4.2;67.6
45113;BME280;30873;53.908;27.576;2023-03-04T00:58:53;1002.2;;;4.1;67.9
45113;BME280;30873;53.908;27.576;2023-03-04T01:04:09;1002;;;4.1;68.1
45113;BME280;30873;53.908;27.576;2023-03-04T01:08:45;1001.9;;;4.1;68.4
45113;BME280;30873;53.908;27.576;2023-03-04T01:13:21;1001.8;;;4;68.9
45113;BME280;30873;53.908;27.576;2023-03-04T01:18:45;1001.7;;;4;69
45113;BME280;30873;53.908;27.576;2023-03-04T01:23:55;1001.6;;;4;69.1
45113;BME280;30873;53.908;27.576;2023-03-04T01:29:09;1001.5;;;4.1;69.4
45113;BME280;30873;53.908;27.576;2023-03-04T01:33:45;1001.4;;;4;69.6
45113;BME280;30873;53.908;27.576;2023-03-04T01:38:45;1001.3;;;4;69.8
45113;BME280;30873;53.908;27.576;2023-03-04T01:43:45;1001.3;;;3.9;70.2
45113;BME280;30873;53.908;27.576;2023-03-04T01:48:55;1001.2;;;3.8;70.9
45113;BME280;30873;53.908;27.576;2023-03-04T01:53:55;1001.1;;;3.7;71.2
45113;BME280;30873;53.908;27.576;2023-03-04T01:58:43;1001.1;;;3.7;71.4
45113;BME280;30873;53.908;27.576;2023-03-04T02:03:21;1001;;;3.7;71.7
45113;BME280;30873;53.908;27.576;2023-03-04T02:08:45;1000.8;;;3.7;71.3
45113;BME280;30873;53.908;27.576;2023-03-04T02:13:53;1000.8;;;3.7;70.7
45113;BME280;30873;53.908;27.576;2023-03-04T02:19:05;1000.7;;;3.7;70.3
45113;BME280;30873;53.908;27.576;2023-03-04T02:23:45;1000.7;;;3.7;69.9
45113;BME280;30873;53.908;27.576;2023-03-04T02:28:21;1000.7;;;3.7;69.6
45113;BME280;30873;53.908;27.576;2023-03-04T02:33:45;1000.6;;;3.7;69.4
45113;BME280;30873;53.908;27.576;2023-03-04T02:39:11;1000.5;;;3.7;69.1
45113;BME280;30873;53.908;27.576;2023-03-04T02:43:52;1000.5;;;3.8;68.8
45113;BME280;30873;53.908;27.576;2023-03-04T02:49:09;1000.4;;;3.7;68.6
45113;BME280;30873;53.908;27.576;2023-03-04T02:53:21;1000.3;;;3.8;68.4
45113;BME280;30873;53.908;27.576;2023-03-04T02:58:21;1000.2;;;3.8;68.1
45113;BME280;30873;53.908;27.576;2023-03-04T03:04:09;1000.1;;;3.8;67.9
45113;BME280;30873;53.908;27.576;2023-03-04T03:08:53;1000.1;;;3.7;67.9
45113;BME280;30873;53.908;27.576;2023-03-04T03:14:09;999.9;;;3.7;67.8
45113;BME280;30873;53.908;27.576;2023-03-04T03:18:31;999.8;;;3.6;68
45113;BME280;30873;53.908;27.576;2023-03-04T03:23:45;999.7;;;3.7;68.1
45113;BME280;30873;53.908;27.576;2023-03-04T03:29:07;999.6;;;3.7;67.9
45113;BME280;30873;53.908;27.576;2023-03-04T03:33:55;999.5;;;3.6;68.1
45113;BME280;30873;53.908;27.576;2023-03-04T03:39:07;999.3;;;3.6;68
45113;BME280;30873;53.908;27.576;2023-03-04T03:43:31;999.2;;;3.6;67.9
45113;BME280;30873;53.908;27.576;2023-03-04T03:48:31;999;;;3.5;67.8
45113;BME280;30873;53.908;27.576;2023-03-04T03:54:09;999;;;3.4;67.9
45113;BME280;30873;53.908;27.576;2023-03-04T03:58:55;998.8;;;3.4;67.8
45113;BME280;30873;53.908;27.576;2023-03-04T04:04:09;998.7;;;3.4;67.6
45113;BME280;30873;53.908;27.576;2023-03-04T04:08:33;998.6;;;3.5;67.5
45113;BME280;30873;53.908;27.576;2023-03-04T04:13:21;998.6;;;3.5;67.6
45113;BME280;30873;53.908;27.576;2023-03-04T04:19:10;998.5;;;3.5;67.5
45113;BME280;30873;53.908;27.576;2023-03-04T04:23:53;998.4;;;3.5;67.3
45113;BME280;30873;53.908;27.576;2023-03-04T04:29:11;998.3;;;3.4;67.1
45113;BME280;30873;53.908;27.576;2023-03-04T04:33:21;998.1;;;3.5;67.1
45113;BME280;30873;53.908;27.576;2023-03-04T04:38:45;998.1;;;3.4;66.9
45113;BME280;30873;53.908;27.576;2023-03-04T04:44:09;998;;;3.4;67.4
45113;BME280;30873;53.908;27.576;2023-03-04T04:48:55;997.9;;;3.5;67.1
45113;BME280;30873;53.908;27.576;2023-03-04T04:53:31;997.8;;;3.5;67
45113;BME280;30873;53.908;27.576;2023-03-04T04:58:43;997.8;;;3.5;67
45113;BME280;30873;53.908;27.576;2023-03-04T05:03:21;997.7;;;3.6;67
45113;BME280;30873;53.908;27.576;2023-03-04T05:09:07;997.6;;;3.5;67
45113;BME280;30873;53.908;27.576;2023-03-04T05:13:55;997.5;;;3.5;67
45113;BME280;30873;53.908;27.576;2023-03-04T05:19:09;997.5;;;3.5;81.7
45113;BME280;30873;53.908;27.576;2023-03-04T05:23:45;997.6;;;3.6;70.8
45113;BME280;30873;53.908;27.576;2023-03-04T05:28:55;997.5;;;3.5;69.8
45113;BME280;30873;53.908;27.576;2023-03-04T05:34:07;997.3;;;3.5;69.1
45113;BME280;30873;53.908;27.576;2023-03-04T05:38:53;997.5;;;3.5;68.6
45113;BME280;30873;53.908;27.576;2023-03-04T05:44:05;997.5;;;3.6;68.3
45113;BME280;30873;53.908;27.576;2023-03-04T05:48:21;997.5;;;3.7;68
45113;BME280;30873;53.908;27.576;2023-03-04T05:54:07;997.4;;;3.7;67.5
45113;BME280;30873;53.908;27.576;2023-03-04T05:59:09;997.2;;;3.8;67.3
45113;BME280;30873;53.908;27.576;2023-03-04T06:03:55;997.1;;;3.8;67
45113;BME280;30873;53.908;27.576;2023-03-04T06:09:09;997.1;;;3.9;66.9
45113;BME280;30873;53.908;27.576;2023-03-04T06:13:31;997.1;;;4;66.6
45113;BME280;30873;53.908;27.576;2023-03-04T06:18:43;997.1;;;3.9;66.4
45113;BME280;30873;53.908;27.576;2023-03-04T06:24:07;997.1;;;4;66.5
45113;BME280;30873;53.908;27.576;2023-03-04T06:28:45;997;;;4.2;66.1
45113;BME280;30873;53.908;27.576;2023-03-04T06:33:55;997;;;4.2;65.9
45113;BME280;30873;53.908;27.576;2023-03-04T06:38:33;996.9;;;4.2;65.9
45113;BME280;30873;53.908;27.576;2023-03-04T06:43:21;996.9;;;4.2;66.3
45113;BME280;30873;53.908;27.576;2023-03-04T06:48:33;996.8;;;4.3;66.3
45113;BME280;30873;53.908;27.576;2023-03-04T06:54:09;996.8;;;4.5;67.5
45113;BME280;30873;53.908;27.576;2023-03-04T06:59:07;996.9;;;4.5;65.8
45113;BME280;30873;53.908;27.576;2023-03-04T07:03:21;996.8;;;4.5;65.8
45113;BME280;30873;53.908;27.576;2023-03-04T07:08:59;996.7;;;4.6;65.6
45113;BME280;30873;53.908;27.576;2023-03-04T07:13:31;996.7;;;4.5;65.4
45113;BME280;30873;53.908;27.576;2023-03-04T07:18:55;996.7;;;4.6;66.3
45113;BME280;30873;53.908;27.576;2023-03-04T07:24:01;996.8;;;4.3;68.6
45113;BME280;30873;53.908;27.576;2023-03-04T07:28:34;996.8;;;4;73.3
45113;BME280;30873;53.908;27.576;2023-03-04T07:33:45;996.9;;;3.7;77.8
45113;BME280;30873;53.908;27.576;2023-03-04T07:38:43;996.8;;;3.5;77.8
45113;BME280;30873;53.908;27.576;2023-03-04T07:43:54;996.8;;;3.6;77.7
45113;BME280;30873;53.908;27.576;2023-03-04T07:49:10;996.9;;;3.5;77.7
45113;BME280;30873;53.908;27.576;2023-03-04T07:53:33;996.9;;;3.4;78
45113;BME280;30873;53.908;27.576;2023-03-04T07:58:45;996.9;;;3.4;78.5
45113;BME280;30873;53.908;27.576;2023-03-04T08:03:33;997;;;3.3;78.5
45113;BME280;30873;53.908;27.576;2023-03-04T08:08:54;996.9;;;2.9;80.1
45113;BME280;30873;53.908;27.576;2023-03-04T08:13:33;996.9;;;3;80.5
45113;BME280;30873;53.908;27.576;2023-03-04T08:18:33;997.2;;;2.6;80.5
45113;BME280;30873;53.908;27.576;2023-03-04T08:24:00;997.2;;;2.1;82.6
45113;BME280;30873;53.908;27.576;2023-03-04T08:28:33;997.3;;;2.1;82.9
45113;BME280;30873;53.908;27.576;2023-03-04T08:34:09;997.3;;;2.3;83.1
45113;BME280;30873;53.908;27.576;2023-03-04T08:39:10;997.3;;;2.8;84.5
45113;BME280;30873;53.908;27.576;2023-03-04T08:43:31;997.1;;;3.4;84.9
45113;BME280;30873;53.908;27.576;2023-03-04T08:48:21;997;;;4.3;85.6
45113;BME280;30873;53.908;27.576;2023-03-04T08:53:33;997;;;4.1;83.4
45113;BME280;30873;53.908;27.576;2023-03-04T08:58:33;997;;;3.9;82.8
45113;BME280;30873;53.908;27.576;2023-03-04T09:04:10;997;;;4.8;83.6
45113;BME280;30873;53.908;27.576;2023-03-04T09:08:45;996.9;;;5.3;81.3
45113;BME280;30873;53.908;27.576;2023-03-04T09:13:43;996.9;;;5.4;77.7
45113;BME280;30873;53.908;27.576;2023-03-04T09:18:33;996.9;;;5.9;73
45113;BME280;30873;53.908;27.576;2023-03-04T09:24:09;996.8;;;6.8;64.8
45113;BME280;30873;53.908;27.576;2023-03-04T09:29:07;996.8;;;6.9;58.1
45113;BME280;30873;53.908;27.576;2023-03-04T09:33:29;996.8;;;6.8;57.3
45113;BME280;30873;53.908;27.576;2023-03-04T09:38:43;996.7;;;8.4;53.6
45113;BME280;30873;53.908;27.576;2023-03-04T09:43:22;996.8;;;7.5;52.8
45113;BME280;30873;53.908;27.576;2023-03-04T09:48:53;996.7;;;8.6;51.3
45113;BME280;30873;53.908;27.576;2023-03-04T09:54:07;996.7;;;10;47.6
45113;BME280;30873;53.908;27.576;2023-03-04T09:58:35;996.6;;;8.8;48.1
45113;BME280;30873;53.908;27.576;2023-03-04T10:03:31;996.6;;;7.3;50.3
45113;BME280;30873;53.908;27.576;2023-03-04T10:08:33;996.5;;;7.5;50.5
45113;BME280;30873;53.908;27.576;2023-03-04T10:13:54;996.4;;;9.3;46.8
45113;BME280;30873;53.908;27.576;2023-03-04T10:19:13;996.4;;;10.3;44.9
45113;BME280;30873;53.908;27.576;2023-03-04T10:23:22;996.3;;;11.9;41.1
45113;BME280;30873;53.908;27.576;2023-03-04T10:28:43;996.2;;;12.1;40.1
45113;BME280;30873;53.908;27.576;2023-03-04T10:33:53;996.2;;;9.9;42.9
45113;BME280;30873;53.908;27.576;2023-03-04T10:38:43;996.2;;;9.8;42.3
45113;BME280;30873;53.908;27.576;2023-03-04T10:43:59;996.1;;;10.2;39.5
45113;BME280;30873;53.908;27.576;2023-03-04T10:48:30;996;;;8.3;41.8
45113;BME280;30873;53.908;27.576;2023-03-04T10:53:45;995.9;;;8.9;41.1
45113;BME280;30873;53.908;27.576;2023-03-04T10:58:39;995.7;;;12;36.1
45113;BME280;30873;53.908;27.576;2023-03-04T11:03:46;995.7;;;12.9;34.6
45113;BME280;30873;53.908;27.576;2023-03-04T11:08:35;995.8;;;11.6;36
45113;BME280;30873;53.908;27.576;2023-03-04T11:14:00;996;;;8.3;41.8
45113;BME280;30873;53.908;27.576;2023-03-04T11:19:10;996.1;;;6.8;46.1
45113;BME280;30873;53.908;27.576;2023-03-04T11:23:56;996.1;;;7.8;45
45113;BME280;30873;53.908;27.576;2023-03-04T11:28:43;996.1;;;10.4;41.3
45113;BME280;30873;53.908;27.576;2023-03-04T11:33:56;996.1;;;10.6;40.8
45113;BME280;30873;53.908;27.576;2023-03-04T11:38:45;996;;;11.9;38.5
45113;BME280;30873;53.908;27.576;2023-03-04T11:44:07;995.9;;;12.8;35.7
45113;BME280;30873;53.908;27.576;2023-03-04T11:48:23;996;;;10.2;38.3
45113;BME280;30873;53.908;27.576;2023-03-04T11:53:26;996.1;;;8.2;43.9
45113;BME280;30873;53.908;27.576;2023-03-04T11:59:16;996;;;8.5;44.4
45113;BME280;30873;53.908;27.576;2023-03-04T12:03:50;996.1;;;7;47.4
45113;BME280;30873;53.908;27.576;2023-03-04T12:09:13;996.1;;;6.1;50.7
45113;BME280;30873;53.908;27.576;2023-03-04T12:13:38;996.2;;;5.7;50.9
45113;BME280;30873;53.908;27.576;2023-03-04T12:18:25;996.5;;;5.6;58.9
45113;BME280;30873;53.908;27.576;2023-03-04T12:24:13;996.6;;;4.2;91
45113;BME280;30873;53.908;27.576;2023-03-04T12:28:46;996.2;;;4.8;66.5
45113;BME280;30873;53.908;27.576;2023-03-04T12:34:12;996.1;;;4.1;63
45113;BME280;30873;53.908;27.576;2023-03-04T12:38:34;996;;;5.2;62.4
45113;BME280;30873;53.908;27.576;2023-03-04T12:43:39;995.8;;;8.2;51.9
45113;BME280;30873;53.908;27.576;2023-03-04T12:48:31;995.8;;;7;50.1
45113;BME280;30873;53.908;27.576;2023-03-04T12:53:46;996;;;5.8;51.2
45113;BME280;30873;53.908;27.576;2023-03-04T12:59:08;996.1;;;5.1;52.6
45113;BME280;30873;53.908;27.576;2023-03-04T13:03:39;996.5;;;4.2;57.5
45113;BME280;30873;53.908;27.576;2023-03-04T13:08:47;996.7;;;3;66.5
45113;BME280;30873;53.908;27.576;2023-03-04T13:13:37;997;;;1.7;74.7
45113;BME280;30873;53.908;27.576;2023-03-04T13:18:43;997.1;;;0.7;84.2
45113;BME280;30873;53.908;27.576;2023-03-04T13:24:40;996.8;;;0.8;85.4
45113;BME280;30873;53.908;27.576;2023-03-04T13:28:22;996.5;;;3.4;86.8
45113;BME280;30873;53.908;27.576;2023-03-04T13:33:48;996.3;;;6.7;82.3
45113;BME280;30873;53.908;27.576;2023-03-04T13:38:58;996.1;;;8.3;74
45113;BME280;30873;53.908;27.576;2023-03-04T13:43:45;996;;;9.5;58.1
45113;BME280;30873;53.908;27.576;2023-03-04T13:49:15;996;;;9.8;51.8
45113;BME280;30873;53.908;27.576;2023-03-04T13:53:41;996;;;9.3;50.8
45113;BME280;30873;53.908;27.576;2023-03-04T13:58:22;996.1;;;8;52.3
45113;BME280;30873;53.908;27.576;2023-03-04T14:03:51;996.2;;;5.8;54.8
45113;BME280;30873;53.908;27.576;2023-03-04T14:08:44;996.4;;;4.1;58.6
45113;BME280;30873;53.908;27.576;2023-03-04T14:13:58;996.5;;;2.9;61.1
45113;BME280;30873;53.908;27.576;2023-03-04T14:18:29;996.6;;;2.2;63.7
45113;BME280;30873;53.908;27.576;2023-03-04T14:23:43;996.4;;;3.2;64.8
45113;BME280;30873;53.908;27.576;2023-03-04T14:28:53;996.3;;;5.2;60.7
45113;BME280;30873;53.908;27.576;2023-03-04T14:33:44;996.3;;;4.5;58.9
45113;BME280;30873;53.908;27.576;2023-03-04T14:38:58;996.3;;;3.3;60.5
45113;BME280;30873;53.908;27.576;2023-03-04T14:43:40;996.4;;;2.9;61.1
45113;BME280;30873;53.908;27.576;2023-03-04T14:48:55;996.3;;;2.7;61.5
45113;BME280;30873;53.908;27.576;2023-03-04T14:54:24;996.3;;;2.8;61.2
45113;BME280;30873;53.908;27.576;2023-03-04T14:58:22;996.2;;;2.9;61.4
45113;BME280;30873;53.908;27.576;2023-03-04T15:03:35;996.5;;;2.8;60.7
45113;BME280;30873;53.908;27.576;2023-03-04T15:08:22;996.8;;;2.4;61.7
45113;BME280;30873;53.908;27.576;2023-03-04T15:13:55;996.8;;;1.6;62
45113;BME280;30873;53.908;27.576;2023-03-04T15:19:22;996.8;;;1.3;62.4
45113;BME280;30873;53.908;27.576;2023-03-04T15:23:43;996.8;;;1.1;65
45113;BME280;30873;53.908;27.576;2023-03-04T15:28:57;996.6;;;1;67.5
45113;BME280;30873;53.908;27.576;2023-03-04T15:33:39;996.2;;;1;65.1
45113;BME280;30873;53.908;27.576;2023-03-04T15:38:46;996.2;;;0.6;63.5
45113;BME280;30873;53.908;27.576;2023-03-04T15:44:07;996.3;;;0.5;63.1
45113;BME280;30873;53.908;27.576;2023-03-04T15:48:43;996.4;;;0.3;63
45113;BME280;30873;53.908;27.576;2023-03-04T15:53:57;996.4;;;0.3;62.9
45113;BME280;30873;53.908;27.576;2023-03-04T15:58:29;996.4;;;0.3;62.5
45113;BME280;30873;53.908;27.576;2023-03-04T16:03:57;996.4;;;0.3;62.2
45113;BME280;30873;53.908;27.576;2023-03-04T16:09:07;996.4;;;0.3;61.3
45113;BME280;30873;53.908;27.576;2023-03-04T16:13:41;996.3;;;0.4;60.1
45113;BME280;30873;53.908;27.576;2023-03-04T16:18:57;996.3;;;0.4;59.6
45113;BME280;30873;53.908;27.576;2023-03-04T16:23:22;996.3;;;0.4;59.5
45113;BME280;30873;53.908;27.576;2023-03-04T16:28:57;996.3;;;0.4;59.4
45113;BME280;30873;53.908;27.576;2023-03-04T16:34:05;996.3;;;0.4;59.2
45113;BME280;30873;53.908;27.576;2023-03-04T16:38:22;996.3;;;0.4;58.2
45113;BME280;30873;53.908;27.576;2023-03-04T16:43:57;996.4;;;0.4;57.8
45113;BME280;30873;53.908;27.576;2023-03-04T16:48:31;996.4;;;0.4;56.7
45113;BME280;30873;53.908;27.576;2023-03-04T16:53:57;996.4;;;0.4;56.2
45113;BME280;30873;53.908;27.576;2023-03-04T16:59:08;996.4;;;0.4;55.5
45113;BME280;30873;53.908;27.576;2023-03-04T17:03:33;996.4;;;0.3;55.2
45113;BME280;30873;53.908;27.576;2023-03-04T17:08:57;996.4;;;0.4;55.2
45113;BME280;30873;53.908;27.576;2023-03-04T17:13:21;996.4;;;0.4;55
45113;BME280;30873;53.908;27.576;2023-03-04T17:18:57;996.4;;;0.4;55.2
45113;BME280;30873;53.908;27.576;2023-03-04T17:24:07;996.3;;;0.5;55.2
45113;BME280;30873;53.908;27.576;2023-03-04T17:28:41;996.4;;;0.4;55.1
45113;BME280;30873;53.908;27.576;2023-03-04T17:34:05;996.4;;;0.4;55.3
45113;BME280;30873;53.908;27.576;2023-03-04T17:38:53;996.4;;;0.4;55.5
45113;BME280;30873;53.908;27.576;2023-03-04T17:43:55;996.3;;;0.4;55.7
45113;BME280;30873;53.908;27.576;2023-03-04T17:49:09;996.3;;;0.4;56.2
45113;BME280;30873;53.908;27.576;2023-03-04T17:53:43;996.3;;;0.4;56.8
45113;BME280;30873;53.908;27.576;2023-03-04T17:58:58;996.2;;;0.4;57.5
45113;BME280;30873;53.908;27.576;2023-03-04T18:03:21;996.2;;;0.5;58.1
45113;BME280;30873;53.908;27.576;2023-03-04T18:08:57;996.2;;;0.5;59
45113;BME280;30873;53.908;27.576;2023-03-04T18:14:07;996.1;;;0.4;59.9
45113;BME280;30873;53.908;27.576;2023-03-04T18:18:21;996;;;0.3;60.1
45113;BME280;30873;53.908;27.576;2023-03-04T18:23:57;996;;;0.3;60.6
45113;BME280;30873;53.908;27.576;2023-03-04T18:28:21;996.1;;;0.2;61.4
45113;BME280;30873;53.908;27.576;2023-03-04T18:33:58;996.1;;;0.2;62.4
45113;BME280;30873;53.908;27.576;2023-03-04T18:39:07;996.1;;;0.1;63
45113;BME280;30873;53.908;27.576;2023-03-04T18:43:43;996.1;;;0.2;62.7
45113;BME280;30873;53.908;27.576;2023-03-04T18:48:59;996.1;;;0.2;62.5
45113;BME280;30873;53.908;27.576;2023-03-04T18:53:43;996.1;;;0.2;62.9
45113;BME280;30873;53.908;27.576;2023-03-04T18:58:57;996.1;;;0.1;63.1
45113;BME280;30873;53.908;27.576;2023-03-04T19:04:07;996.1;;;0.2;63.8
45113;BME280;30873;53.908;27.576;2023-03-04T19:08:41;996.1;;;0;63.9
45113;BME280;30873;53.908;27.576;2023-03-04T19:13:57;996;;;0;63.7
45113;BME280;30873;53.908;27.576;2023-03-04T19:18:29;996;;;0.1;63.5
45113;BME280;30873;53.908;27.576;2023-03-04T19:23:57;996;;;0.1;63.2
45113;BME280;30873;53.908;27.576;2023-03-04T19:29:07;996;;;0.1;63.1
45113;BME280;30873;53.908;27.576;2023-03-04T19:33:43;995.9;;;0.2;63.2
45113;BME280;30873;53.908;27.576;2023-03-04T19:38:57;996.1;;;0.2;64.1
45113;BME280;30873;53.908;27.576;2023-03-04T19:43:21;996.1;;;0.2;64.5
45113;BME280;30873;53.908;27.576;2023-03-04T19:48:55;996.2;;;0.2;65.1
45113;BME280;30873;53.908;27.576;2023-03-04T19:54:07;996.2;;;0.3;64.7
45113;BME280;30873;53.908;27.576;2023-03-04T19:58:31;996.2;;;0.4;64.7
45113;BME280;30873;53.908;27.576;2023-03-04T20:03:59;996.2;;;0.4;64.9
45113;BME280;30873;53.908;27.576;2023-03-04T20:08:31;996.2;;;0.4;65.3
45113;BME280;30873;53.908;27.576;2023-03-04T20:13:57;996.2;;;0.4;65.7
45113;BME280;30873;53.908;27.576;2023-03-04T20:18:53;996.2;;;0.5;65.9
45113;BME280;30873;53.908;27.576;2023-03-04T20:23:53;996.1;;;0.4;66.6
45113;BME280;30873;53.908;27.576;2023-03-04T20:28:57;996.1;;;0.4;66.6
45113;BME280;30873;53.908;27.576;2023-03-04T20:33:31;996;;;0.4;66.8
45113;BME280;30873;53.908;27.576;2023-03-04T20:38:57;996.1;;;0.4;66.7
45113;BME280;30873;53.908;27.576;2023-03-04T20:44:06;996.1;;;0.5;66.9
45113;BME280;30873;53.908;27.576;2023-03-04T20:48:29;996.1;;;0.5;67.1
45113;BME280;30873;53.908;27.576;2023-03-04T20:53:45;996.1;;;0.5;67.4
45113;BME280;30873;53.908;27.576;2023-03-04T20:58:33;996.2;;;0.5;67.8
45113;BME280;30873;53.908;27.576;2023-03-04T21:03:59;996.3;;;0.5;68.1
45113;BME280;30873;53.908;27.576;2023-03-04T21:09:08;996.3;;;0.5;68.5
45113;BME280;30873;53.908;27.576;2023-03-04T21:13:21;996.3;;;0.5;68.5
45113;BME280;30873;53.908;27.576;2023-03-04T21:18:59;996.3;;;0.6;68.5
45113;BME280;30873;53.908;27.576;2023-03-04T21:23:21;996.3;;;0.6;68.5
45113;BME280;30873;53.908;27.576;2023-03-04T21:28:59;996.4;;;0.7;68.6
45113;BME280;30873;53.908;27.576;2023-03-04T21:34:08;996.4;;;0.6;69
45113;BME280;30873;53.908;27.576;2023-03-04T21:38:43;996.3;;;0.6;69.7
45113;BME280;30873;53.908;27.576;2023-03-04T21:43:59;996.4;;;0.5;70.4
45113;BME280;30873;53.908;27.576;2023-03-04T21:48:29;996.5;;;0.5;71.3
45113;BME280;30873;53.908;27.576;2023-03-04T21:53:59;996.5;;;0.4;71.6
45113;BME280;30873;53.908;27.576;2023-03-04T21:59:10;996.6;;;0.5;71.8
45113;BME280;30873;53.908;27.576;2023-03-04T22:03:45;996.6;;;0.5;71.7
45113;BME280;30873;53.908;27.576;2023-03-04T22:08:58;996.7;;;0.6;71.8
45113;BME280;30873;53.908;27.576;2023-03-04T22:13:21;996.7;;;0.7;70.6
45113;BME280;30873;53.908;27.576;2023-03-04T22:18:59;996.7;;;0.8;69.9
45113;BME280;30873;53.908;27.576;2023-03-04T22:24:07;996.8;;;0.9;70
45113;BME280;30873;53.908;27.576;2023-03-04T22:28:43;996.8;;;0.9;69.8
45113;BME280;30873;53.908;27.576;2023-03-04T22:34:08;996.9;;;0.9;69.4
45113;BME280;30873;53.908;27.576;2023-03-04T22:38:21;996.9;;;1;68.9
45113;BME280;30873;53.908;27.576;2023-03-04T22:43:59;997;;;1;67.7
45113;BME280;30873;53.908;27.576;2023-03-04T22:49:11;997;;;1.2;67.2
45113;BME280;30873;53.908;27.576;2023-03-04T22:53:33;997.1;;;1.2;66.7
45113;BME280;30873;53.908;27.576;2023-03-04T22:59:09;997.2;;;1.2;66.6
45113;BME280;30873;53.908;27.576;2023-03-04T23:04:09;997.3;;;1.2;67
45113;BME280;30873;53.908;27.576;2023-03-04T23:08:59;997.4;;;1.2;68.1
45113;BME280;30873;53.908;27.576;2023-03-04T23:14:09;997.5;;;1.2;67.9
45113;BME280;30873;53.908;27.576;2023-03-04T23:18:31;997.6;;;1.2;68.6
45113;BME280;30873;53.908;27.576;2023-03-04T23:24:10;997.7;;;1.1;69.1
45113;BME280;30873;53.908;27.576;2023-03-04T23:28:29;997.7;;;1.1;69.2
45113;BME280;30873;53.908;27.576;2023-03-04T23:33:46;997.7;;;1.1;68.9
45113;BME280;30873;53.908;27.576;2023-03-04T23:39:10;997.7;;;1.1;68.3
45113;BME280;30873;53.908;27.576;2023-03-04T23:43:21;997.8;;;1.2;67.8
45113;BME280;30873;53.908;27.576;2023-03-04T23:49:10;997.8;;;1.2;67.7
45113;BME280;30873;53.908;27.576;2023-03-04T23:53:21;997.8;;;1.3;67.3
45113;BME280;30873;53.908;27.576;2023-03-04T23:58:58;997.9;;;1.3;66.8
